createdAt,value
2022-09-11T00:03:14.324Z,5.21
2022-09-11T00:06:37.292Z,5.16
2022-09-11T00:09:59.942Z,5.14
2022-09-11T00:13:25.565Z,5.06
2022-09-11T00:16:49.235Z,5.03
2022-09-11T00:20:13.738Z,5.02
2022-09-11T00:23:37.311Z,4.99
2022-09-11T00:27:00.377Z,4.95
2022-09-11T00:30:23.642Z,4.93
2022-09-11T00:33:46.707Z,4.89
2022-09-11T00:37:11.300Z,4.86
2022-09-11T00:40:33.844Z,4.81
2022-09-11T00:44:03.273Z,4.82
2022-09-11T00:47:26.220Z,4.81
2022-09-11T00:50:50.922Z,4.83
2022-09-11T00:54:20.020Z,4.83
2022-09-11T00:57:47.281Z,4.83
2022-09-11T01:01:11.015Z,4.84
2022-09-11T01:04:33.927Z,4.77
2022-09-11T01:07:58.580Z,4.79
2022-09-11T01:11:41.962Z,4.75
2022-09-11T01:15:08.408Z,4.72
2022-09-11T01:18:35.250Z,4.68
2022-09-11T01:22:23.706Z,4.62
2022-09-11T01:26:02.956Z,4.75
2022-09-11T01:29:31.233Z,4.74
2022-09-11T01:33:14.571Z,4.70
2022-09-11T01:36:43.677Z,4.72
2022-09-11T01:40:13.212Z,4.68
2022-09-11T01:43:38.058Z,4.67
2022-09-11T01:47:05.874Z,4.57
2022-09-11T01:50:33.135Z,4.57
2022-09-11T01:54:00.596Z,4.53
2022-09-11T01:57:31.650Z,4.51
2022-09-11T02:01:04.293Z,4.49
2022-09-11T02:04:33.948Z,4.44
2022-09-11T02:07:58.620Z,4.44
2022-09-11T02:11:22.326Z,4.40
2022-09-11T02:14:48.463Z,4.34
2022-09-11T02:18:18.895Z,4.34
2022-09-11T02:21:43.395Z,4.29
2022-09-11T02:25:07.591Z,4.28
2022-09-11T02:28:30.949Z,4.24
2022-09-11T02:31:53.908Z,4.20
2022-09-11T02:35:17.595Z,4.20
2022-09-11T02:38:53.658Z,4.18
2022-09-11T02:42:29.422Z,4.18
2022-09-11T02:46:05.400Z,4.16
2022-09-11T02:49:40.578Z,4.19
2022-09-11T02:53:09.428Z,4.15
2022-09-11T02:56:41.911Z,4.17
2022-09-11T03:00:09.469Z,4.17
2022-09-11T03:03:40.543Z,4.15
2022-09-11T03:07:03.899Z,4.13
2022-09-11T03:10:28.186Z,4.12
2022-09-11T03:13:52.607Z,4.10
2022-09-11T03:17:15.335Z,4.07
2022-09-11T03:20:39.319Z,4.07
2022-09-11T03:24:02.321Z,4.04
2022-09-11T03:27:25.666Z,4.00
2022-09-11T03:30:50.702Z,3.99
2022-09-11T03:34:14.234Z,3.96
2022-09-11T03:37:37.289Z,3.93
2022-09-11T03:41:00.481Z,3.92
2022-09-11T03:44:23.312Z,3.90
2022-09-11T03:47:47.303Z,3.89
2022-09-11T03:51:10.471Z,3.89
2022-09-11T03:54:33.632Z,3.91
2022-09-11T03:57:56.724Z,3.93
2022-09-11T04:01:20.510Z,3.93
2022-09-11T04:04:45.486Z,3.95
2022-09-11T04:08:09.152Z,3.95
2022-09-11T04:11:37.231Z,3.98
2022-09-11T04:15:00.608Z,4.04
2022-09-11T04:18:23.260Z,4.10
2022-09-11T04:21:48.478Z,4.16
2022-09-11T04:25:12.860Z,4.20
2022-09-11T04:28:36.126Z,4.28
2022-09-11T04:31:59.230Z,4.31
2022-09-11T04:35:22.148Z,4.42
2022-09-11T04:38:47.468Z,4.52
2022-09-11T04:42:10.840Z,4.61
2022-09-11T04:45:34.149Z,4.75
2022-09-11T04:48:59.623Z,4.88
2022-09-11T04:52:22.542Z,4.97
2022-09-11T04:55:46.663Z,5.08
2022-09-11T04:59:13.833Z,5.17
2022-09-11T05:02:36.683Z,5.22
2022-09-11T05:05:59.436Z,5.36
2022-09-11T05:09:22.399Z,5.46
2022-09-11T05:12:46.380Z,5.49
2022-09-11T05:16:10.694Z,5.67
2022-09-11T05:19:33.431Z,5.78
2022-09-11T05:22:56.699Z,5.88
2022-09-11T05:26:20.684Z,5.98
2022-09-11T05:29:45.284Z,6.13
2022-09-11T05:33:09.369Z,6.29
2022-09-11T05:36:36.425Z,6.39
2022-09-11T05:39:59.709Z,6.60
2022-09-11T05:43:22.850Z,6.81
2022-09-11T05:46:47.657Z,6.96
2022-09-11T05:50:11.641Z,7.14
2022-09-11T05:53:34.616Z,7.29
2022-09-11T05:56:57.658Z,7.42
2022-09-11T06:00:21.139Z,7.60
2022-09-11T06:03:47.982Z,7.73
2022-09-11T06:07:10.840Z,7.92
2022-09-11T06:10:34.009Z,8.13
2022-09-11T06:13:57.687Z,8.25
2022-09-11T06:17:20.845Z,8.45
2022-09-11T06:20:45.443Z,8.62
2022-09-11T06:24:08.714Z,8.70
2022-09-11T06:27:31.368Z,8.89
2022-09-11T06:30:54.441Z,9.07
2022-09-11T06:34:17.391Z,9.18
2022-09-11T06:37:41.677Z,9.34
2022-09-11T06:41:05.158Z,9.50
2022-09-11T06:44:28.521Z,9.70
2022-09-11T06:47:51.387Z,9.86
2022-09-11T06:51:15.670Z,10.08
2022-09-11T06:54:40.274Z,10.22
2022-09-11T06:58:04.161Z,10.34
2022-09-11T07:01:27.571Z,10.57
2022-09-11T07:04:50.534Z,10.74
2022-09-11T07:08:13.129Z,10.82
2022-09-11T07:11:38.965Z,10.97
2022-09-11T07:15:02.331Z,11.16
2022-09-11T07:18:25.186Z,11.35
2022-09-11T07:21:48.540Z,11.52
2022-09-11T07:25:11.720Z,11.65
2022-09-11T07:28:37.961Z,11.83
2022-09-11T07:32:01.024Z,11.96
2022-09-11T07:35:24.493Z,12.09
2022-09-11T07:38:49.008Z,12.18
2022-09-11T07:42:11.956Z,12.27
2022-09-11T07:45:37.385Z,12.38
2022-09-11T07:49:02.369Z,12.57
2022-09-11T07:52:25.743Z,12.78
2022-09-11T07:55:48.918Z,12.88
2022-09-11T07:59:12.175Z,12.98
2022-09-11T08:02:37.541Z,13.12
2022-09-11T08:06:01.690Z,13.25
2022-09-11T08:09:28.322Z,13.37
2022-09-11T08:12:51.493Z,13.53
2022-09-11T08:16:14.586Z,13.64
2022-09-11T08:19:39.356Z,13.74
2022-09-11T08:23:02.115Z,13.84
2022-09-11T08:26:26.709Z,13.95
2022-09-11T08:29:49.362Z,14.01
2022-09-11T08:33:14.673Z,14.05
2022-09-11T08:36:38.861Z,14.16
2022-09-11T08:40:02.613Z,14.17
2022-09-11T08:43:28.671Z,14.18
2022-09-11T08:46:59.724Z,14.29
2022-09-11T08:50:26.269Z,14.24
2022-09-11T08:53:52.092Z,14.38
2022-09-11T08:57:21.400Z,14.36
2022-09-11T09:00:48.873Z,14.54
2022-09-11T09:04:47.876Z,14.63
2022-09-11T09:08:18.101Z,14.72
2022-09-11T09:11:54.570Z,14.72
2022-09-11T09:15:31.783Z,14.65
2022-09-11T09:19:02.105Z,14.74
2022-09-11T09:22:36.569Z,14.76
2022-09-11T09:25:59.705Z,14.79
2022-09-11T09:29:26.349Z,14.83
2022-09-11T09:32:53.574Z,14.79
2022-09-11T09:36:21.685Z,14.84
2022-09-11T09:39:45.391Z,14.79
2022-09-11T09:43:40.944Z,14.79
2022-09-11T09:47:06.415Z,14.84
2022-09-11T09:50:33.364Z,14.86
2022-09-11T09:54:01.762Z,14.92
2022-09-11T09:57:28.592Z,14.95
2022-09-11T10:00:51.597Z,14.94
2022-09-11T10:04:20.358Z,15.02
2022-09-11T10:07:48.133Z,15.09
2022-09-11T10:11:13.961Z,15.12
2022-09-11T10:14:52.921Z,15.20
2022-09-11T10:18:40.654Z,15.22
2022-09-11T10:22:26.324Z,15.29
2022-09-11T10:25:52.460Z,15.23
2022-09-11T10:29:19.621Z,15.33
2022-09-11T10:32:44.589Z,15.39
2022-09-11T10:36:11.172Z,15.40
2022-09-11T10:39:38.689Z,15.48
2022-09-11T10:43:01.599Z,15.49
2022-09-11T10:46:42.593Z,15.50
2022-09-11T10:50:27.553Z,15.48
2022-09-11T10:54:01.263Z,15.40
2022-09-11T10:57:31.909Z,15.43
2022-09-11T11:00:55.189Z,15.52
2022-09-11T11:04:18.604Z,15.46
2022-09-11T11:08:03.723Z,15.52
2022-09-11T11:11:40.925Z,15.51
2022-09-11T11:15:34.936Z,15.56
2022-09-11T11:19:11.585Z,15.58
2022-09-11T11:22:58.715Z,15.63
2022-09-11T11:26:38.601Z,15.65
2022-09-11T11:30:18.328Z,15.57
2022-09-11T11:34:03.919Z,15.66
2022-09-11T11:37:32.303Z,15.68
2022-09-11T11:41:01.811Z,15.68
2022-09-11T11:44:34.096Z,15.69
2022-09-11T11:47:57.768Z,15.70
2022-09-11T11:51:26.373Z,15.77
2022-09-11T11:54:54.746Z,15.80
2022-09-11T11:58:29.391Z,15.84
2022-09-11T12:02:00.166Z,15.78
2022-09-11T12:05:26.166Z,15.77
2022-09-11T12:08:52.292Z,15.77
2022-09-11T12:12:16.808Z,15.76
2022-09-11T12:15:40.058Z,15.84
2022-09-11T12:19:06.493Z,15.93
2022-09-11T12:22:39.800Z,15.96
2022-09-11T12:26:18.736Z,16.01
2022-09-11T12:29:55.207Z,16.03
2022-09-11T12:33:54.735Z,16.04
2022-09-11T12:37:33.458Z,16.06
2022-09-11T12:41:02.470Z,16.08
2022-09-11T12:44:34.534Z,16.12
2022-09-11T12:48:04.466Z,16.13
2022-09-11T12:51:30.797Z,16.15
2022-09-11T12:54:54.784Z,16.12
2022-09-11T12:58:28.828Z,16.14
2022-09-11T13:01:55.524Z,16.24
2022-09-11T13:05:21.792Z,16.30
2022-09-11T13:08:51.301Z,16.19
2022-09-11T13:12:54.668Z,16.26
2022-09-11T13:16:26.163Z,16.29
2022-09-11T13:19:51.579Z,16.28
2022-09-11T13:23:20.483Z,16.30
2022-09-11T13:26:43.958Z,16.31
2022-09-11T13:30:09.271Z,16.30
2022-09-11T13:33:34.455Z,16.31
2022-09-11T13:37:00.346Z,16.34
2022-09-11T13:40:27.770Z,16.37
2022-09-11T13:43:57.991Z,16.38
2022-09-11T13:47:30.383Z,16.36
2022-09-11T13:50:54.268Z,16.37
2022-09-11T13:54:29.000Z,16.46
2022-09-11T13:57:55.459Z,16.46
2022-09-11T14:01:19.861Z,16.51
2022-09-11T14:04:44.637Z,16.50
2022-09-11T14:08:24.133Z,16.48
2022-09-11T14:11:49.511Z,16.51
2022-09-11T14:15:22.811Z,16.51
2022-09-11T14:18:48.652Z,16.34
2022-09-11T14:22:18.145Z,16.35
2022-09-11T14:25:41.007Z,16.35
2022-09-11T14:29:08.884Z,16.27
2022-09-11T14:32:34.299Z,16.27
2022-09-11T14:36:07.793Z,16.26
2022-09-11T14:39:35.392Z,16.25
2022-09-11T14:42:58.848Z,16.25
2022-09-11T14:51:16.820Z,16.03
2022-09-11T14:54:40.876Z,16.01
2022-09-11T14:58:04.384Z,15.98
2022-09-11T15:01:27.702Z,15.89
2022-09-11T15:04:51.225Z,15.84
2022-09-11T15:08:16.228Z,15.72
2022-09-11T15:11:39.806Z,15.72
2022-09-11T15:15:04.156Z,15.69
2022-09-11T15:18:29.818Z,15.71
2022-09-11T15:21:52.777Z,15.68
2022-09-11T15:25:17.280Z,15.54
2022-09-11T15:28:43.844Z,15.52
2022-09-11T15:32:08.115Z,15.45
2022-09-11T15:35:38.859Z,15.36
2022-09-11T15:39:03.868Z,15.27
2022-09-11T15:42:28.358Z,15.24
2022-09-11T15:45:51.654Z,15.21
2022-09-11T15:49:14.281Z,15.14
2022-09-11T15:52:38.775Z,15.14
2022-09-11T15:56:07.064Z,15.05
2022-09-11T15:59:32.382Z,15.01
2022-09-11T16:02:56.867Z,14.88
2022-09-11T16:06:19.832Z,14.78
2022-09-11T16:09:43.676Z,14.77
2022-09-11T16:13:06.754Z,14.70
2022-09-11T16:16:31.469Z,14.64
2022-09-11T16:19:54.431Z,14.57
2022-09-11T16:23:18.008Z,14.50
2022-09-11T16:26:42.193Z,14.45
2022-09-11T16:30:42.134Z,14.36
2022-09-11T16:33:50.666Z,14.28
2022-09-11T16:37:13.806Z,14.17
2022-09-11T16:40:37.596Z,14.02
2022-09-11T16:44:03.313Z,13.90
2022-09-11T16:47:26.586Z,13.84
2022-09-11T16:50:55.786Z,13.73
2022-09-11T16:54:19.357Z,13.64
2022-09-11T16:57:44.674Z,13.56
2022-09-11T17:01:08.701Z,13.45
2022-09-11T17:04:31.688Z,13.41
2022-09-11T17:07:56.113Z,13.32
2022-09-11T17:11:20.411Z,13.22
2022-09-11T17:14:43.670Z,13.11
2022-09-11T17:18:06.532Z,13.02
2022-09-11T17:21:30.414Z,12.96
2022-09-11T17:24:55.018Z,12.87
2022-09-11T17:28:20.537Z,12.77
2022-09-11T17:31:43.314Z,12.68
2022-09-11T17:35:06.856Z,12.59
2022-09-11T17:38:30.430Z,12.52
2022-09-11T17:41:55.137Z,12.42
2022-09-11T17:45:29.360Z,12.32
2022-09-11T17:48:52.629Z,12.25
2022-09-11T17:52:15.889Z,12.15
2022-09-11T17:55:39.674Z,12.05
2022-09-11T17:59:03.661Z,12.00
2022-09-11T18:02:27.022Z,11.93
2022-09-11T18:05:49.886Z,11.82
2022-09-11T18:09:16.840Z,11.79
2022-09-11T18:12:39.692Z,11.72
2022-09-11T18:16:08.521Z,11.67
2022-09-11T18:19:33.296Z,11.59
2022-09-11T18:22:56.661Z,11.59
2022-09-11T18:26:24.849Z,11.55
2022-09-11T18:29:50.331Z,11.47
2022-09-11T18:33:16.911Z,11.45
2022-09-11T18:36:40.486Z,11.42
2022-09-11T18:40:03.715Z,11.41
2022-09-11T18:43:27.226Z,11.38
2022-09-11T18:46:55.517Z,11.36
2022-09-11T18:50:20.212Z,11.31
2022-09-11T18:58:32.050Z,11.13
2022-09-11T19:01:55.519Z,11.08
2022-09-11T19:05:20.221Z,11.02
2022-09-11T19:08:44.920Z,10.97
2022-09-11T19:12:08.692Z,10.86
2022-09-11T19:15:31.856Z,10.83
2022-09-11T19:18:55.728Z,10.78
2022-09-11T19:22:23.414Z,10.72
2022-09-11T19:25:49.543Z,10.66
2022-09-11T19:29:13.728Z,10.58
2022-09-11T19:32:40.282Z,10.49
2022-09-11T19:36:12.728Z,10.40
2022-09-11T19:39:37.760Z,10.31
2022-09-11T19:43:00.419Z,10.21
2022-09-11T19:46:26.070Z,10.15
2022-09-11T19:49:52.175Z,10.08
2022-09-11T19:53:15.654Z,10.00
2022-09-11T19:56:41.381Z,9.95
2022-09-11T20:00:05.056Z,9.88
2022-09-11T20:03:27.906Z,9.78
2022-09-11T20:10:12.188Z,9.61
2022-09-11T20:13:37.204Z,9.48
2022-09-11T20:17:01.320Z,9.45
2022-09-11T20:20:24.863Z,9.37
2022-09-11T20:23:48.860Z,9.33
2022-09-11T20:27:14.873Z,9.26
2022-09-11T20:30:40.608Z,9.16
2022-09-11T20:34:04.581Z,9.10
2022-09-11T20:37:27.547Z,9.07
2022-09-11T20:40:50.744Z,9.05
2022-09-11T20:44:14.177Z,9.01
2022-09-11T20:47:38.674Z,8.96
2022-09-11T20:51:04.139Z,8.93
2022-09-11T20:54:27.871Z,8.90
2022-09-11T20:57:50.939Z,8.86
2022-09-11T21:01:16.815Z,8.83
2022-09-11T21:04:41.466Z,8.80
2022-09-11T21:08:05.147Z,8.68
2022-09-11T21:11:29.959Z,8.72
2022-09-11T21:14:53.208Z,8.69
2022-09-11T21:18:19.240Z,8.66
2022-09-11T21:21:43.633Z,8.64
2022-09-11T21:25:07.317Z,8.63
2022-09-11T21:28:31.296Z,8.63
2022-09-11T21:31:54.150Z,8.64
2022-09-11T21:35:17.314Z,8.66
2022-09-11T21:38:41.611Z,8.68
2022-09-11T21:42:04.717Z,8.67
2022-09-11T21:45:29.476Z,8.68
2022-09-11T21:48:52.740Z,8.68
2022-09-11T21:52:15.390Z,8.66
2022-09-11T21:55:41.941Z,8.68
2022-09-11T21:59:04.490Z,8.66
2022-09-11T22:02:28.473Z,8.64
2022-09-11T22:05:51.740Z,8.62
2022-09-11T22:09:14.398Z,8.58
2022-09-11T22:12:38.690Z,8.52
2022-09-11T22:16:01.958Z,8.47
2022-09-11T22:19:25.115Z,8.49
2022-09-11T22:22:49.203Z,8.46
2022-09-11T22:26:14.724Z,8.42
2022-09-11T22:29:46.397Z,8.41
2022-09-11T22:33:10.777Z,8.39
2022-09-11T22:36:34.457Z,8.35
2022-09-11T22:39:56.931Z,8.33
2022-09-11T22:43:20.378Z,8.33
2022-09-11T22:46:48.662Z,8.27
2022-09-11T22:50:12.129Z,8.26
2022-09-11T22:53:35.041Z,8.25
2022-09-11T22:56:58.262Z,8.23
2022-09-11T23:00:21.417Z,8.22
2022-09-11T23:03:45.921Z,8.21
2022-09-11T23:07:16.559Z,8.23
2022-09-11T23:10:43.519Z,8.21
2022-09-11T23:14:10.486Z,8.18
2022-09-11T23:17:36.902Z,8.20
2022-09-11T23:21:00.891Z,8.17
2022-09-11T23:24:23.640Z,8.15
2022-09-11T23:27:47.072Z,8.12
2022-09-11T23:31:15.953Z,8.09
2022-09-11T23:34:38.609Z,8.03
2022-09-11T23:38:03.681Z,8.02
2022-09-11T23:41:26.638Z,7.99
2022-09-11T23:44:49.756Z,7.93
2022-09-11T23:48:12.561Z,7.91
2022-09-11T23:51:35.516Z,7.86
2022-09-11T23:54:59.912Z,7.83
2022-09-11T23:58:23.275Z,7.74
